createdAt,value
2022-11-14T00:00:05.442Z,432.00
2022-11-14T00:00:35.464Z,431.00
2022-11-14T00:01:05.497Z,432.00
2022-11-14T00:01:35.522Z,431.00
2022-11-14T00:02:05.542Z,428.00
2022-11-14T00:02:35.612Z,427.00
2022-11-14T00:03:05.773Z,427.00
2022-11-14T00:03:35.661Z,427.00
2022-11-14T00:04:05.686Z,425.00
2022-11-14T00:04:35.704Z,423.00
2022-11-14T00:05:05.847Z,423.00
2022-11-14T00:05:35.840Z,424.00
2022-11-14T00:06:05.867Z,420.00
2022-11-14T00:06:35.892Z,419.00
2022-11-14T00:07:06.009Z,416.00
2022-11-14T00:07:35.923Z,417.00
2022-11-14T00:08:05.946Z,415.00
2022-11-14T00:08:35.976Z,416.00
2022-11-14T00:09:05.991Z,416.00
2022-11-14T00:09:36.014Z,416.00
2022-11-14T00:10:06.028Z,417.00
2022-11-14T00:10:36.146Z,419.00
2022-11-14T00:11:06.261Z,419.00
2022-11-14T00:11:36.372Z,419.00
2022-11-14T00:12:06.482Z,420.00
2022-11-14T00:12:36.594Z,421.00
2022-11-14T00:13:06.704Z,420.00
2022-11-14T00:13:36.812Z,420.00
2022-11-14T00:14:06.928Z,421.00
2022-11-14T00:14:37.034Z,421.00
2022-11-14T00:15:07.147Z,422.00
2022-11-14T00:15:37.256Z,422.00
2022-11-14T00:16:07.377Z,423.00
2022-11-14T00:16:37.372Z,423.00
2022-11-14T00:17:07.475Z,424.00
2022-11-14T00:17:37.590Z,422.00
2022-11-14T00:18:07.696Z,421.00
2022-11-14T00:18:37.807Z,422.00
2022-11-14T00:19:07.925Z,423.00
2022-11-14T00:19:38.033Z,423.00
2022-11-14T00:20:08.039Z,424.00
2022-11-14T00:20:38.180Z,423.00
2022-11-14T00:21:08.179Z,422.00
2022-11-14T00:21:38.211Z,421.00
2022-11-14T00:22:08.229Z,421.00
2022-11-14T00:22:38.256Z,420.00
2022-11-14T00:23:08.280Z,419.00
2022-11-14T00:23:38.306Z,419.00
2022-11-14T00:24:08.339Z,419.00
2022-11-14T00:24:38.368Z,419.00
2022-11-14T00:25:08.391Z,418.00
2022-11-14T00:25:38.412Z,420.00
2022-11-14T00:26:08.456Z,421.00
2022-11-14T00:26:38.495Z,422.00
2022-11-14T00:27:08.506Z,422.00
2022-11-14T00:27:38.531Z,421.00
2022-11-14T00:28:08.566Z,421.00
2022-11-14T00:28:38.588Z,419.00
2022-11-14T00:29:08.609Z,419.00
2022-11-14T00:29:38.637Z,417.00
2022-11-14T00:30:08.661Z,415.00
2022-11-14T00:30:38.683Z,415.00
2022-11-14T00:31:08.730Z,415.00
2022-11-14T00:31:38.756Z,415.00
2022-11-14T00:32:08.774Z,415.00
2022-11-14T00:32:38.795Z,413.00
2022-11-14T00:33:08.821Z,414.00
2022-11-14T00:33:38.845Z,415.00
2022-11-14T00:34:08.867Z,415.00
2022-11-14T00:34:38.892Z,413.00
2022-11-14T00:35:08.914Z,411.00
2022-11-14T00:35:38.941Z,410.00
2022-11-14T00:36:09.084Z,411.00
2022-11-14T00:36:39.082Z,410.00
2022-11-14T00:37:09.107Z,411.00
2022-11-14T00:37:39.134Z,412.00
2022-11-14T00:38:09.154Z,413.00
2022-11-14T00:38:39.182Z,412.00
2022-11-14T00:39:09.207Z,412.00
2022-11-14T00:39:39.233Z,411.00
2022-11-14T00:40:09.257Z,412.00
2022-11-14T00:40:39.281Z,412.00
2022-11-14T00:41:09.302Z,413.00
2022-11-14T00:41:39.326Z,415.00
2022-11-14T00:42:09.341Z,415.00
2022-11-14T00:42:39.364Z,416.00
2022-11-14T00:43:09.384Z,417.00
2022-11-14T00:43:39.411Z,417.00
2022-11-14T00:44:09.433Z,418.00
2022-11-14T00:44:39.462Z,417.00
2022-11-14T00:45:09.488Z,417.00
2022-11-14T00:45:39.509Z,419.00
2022-11-14T00:46:09.537Z,417.00
2022-11-14T00:46:39.559Z,419.00
2022-11-14T00:47:09.580Z,419.00
2022-11-14T00:47:39.604Z,418.00
2022-11-14T00:48:09.622Z,417.00
2022-11-14T00:48:39.657Z,418.00
2022-11-14T00:49:09.687Z,416.00
2022-11-14T00:49:39.708Z,416.00
2022-11-14T00:50:09.729Z,415.00
2022-11-14T00:50:39.757Z,416.00
2022-11-14T00:51:09.799Z,417.00
2022-11-14T00:51:39.936Z,416.00
2022-11-14T00:52:09.924Z,414.00
2022-11-14T00:52:39.949Z,416.00
2022-11-14T00:53:09.972Z,417.00
2022-11-14T00:53:39.999Z,417.00
2022-11-14T00:54:10.028Z,416.00
2022-11-14T00:54:40.056Z,414.00
2022-11-14T00:55:10.072Z,415.00
2022-11-14T00:55:40.097Z,419.00
2022-11-14T00:56:10.128Z,417.00
2022-11-14T00:56:40.153Z,416.00
2022-11-14T00:57:10.173Z,416.00
2022-11-14T00:57:40.200Z,415.00
2022-11-14T00:58:10.217Z,413.00
2022-11-14T00:58:40.242Z,412.00
2022-11-14T00:59:10.277Z,411.00
2022-11-14T00:59:40.292Z,411.00
2022-11-14T01:00:10.316Z,411.00
2022-11-14T01:00:40.380Z,412.00
2022-11-14T01:01:10.524Z,413.00
2022-11-14T01:01:40.442Z,414.00
2022-11-14T01:02:10.464Z,414.00
2022-11-14T01:02:40.510Z,413.00
2022-11-14T01:03:10.534Z,413.00
2022-11-14T01:03:40.561Z,413.00
2022-11-14T01:04:10.595Z,413.00
2022-11-14T01:04:40.615Z,414.00
2022-11-14T01:05:10.639Z,414.00
2022-11-14T01:05:40.658Z,418.00
2022-11-14T01:06:10.688Z,420.00
2022-11-14T01:06:40.708Z,420.00
2022-11-14T01:07:10.858Z,423.00
2022-11-14T01:07:40.847Z,421.00
2022-11-14T01:08:10.869Z,420.00
2022-11-14T01:08:40.898Z,420.00
2022-11-14T01:09:10.957Z,421.00
2022-11-14T01:09:40.970Z,421.00
2022-11-14T01:10:10.965Z,419.00
2022-11-14T01:10:41.080Z,419.00
2022-11-14T01:11:11.206Z,418.00
2022-11-14T01:11:41.312Z,416.00
2022-11-14T01:12:11.419Z,415.00
2022-11-14T01:12:41.527Z,416.00
2022-11-14T01:13:11.646Z,417.00
2022-11-14T01:13:41.756Z,417.00
2022-11-14T01:14:11.862Z,417.00
2022-11-14T01:14:41.981Z,417.00
2022-11-14T01:15:12.089Z,418.00
2022-11-14T01:15:42.224Z,417.00
2022-11-14T01:16:12.203Z,417.00
2022-11-14T01:16:42.315Z,417.00
2022-11-14T01:17:12.437Z,417.00
2022-11-14T01:17:42.432Z,418.00
2022-11-14T01:18:12.554Z,417.00
2022-11-14T01:18:42.669Z,419.00
2022-11-14T01:19:12.772Z,417.00
2022-11-14T01:19:42.891Z,416.00
2022-11-14T01:20:12.901Z,415.00
2022-11-14T01:20:42.947Z,416.00
2022-11-14T01:21:12.971Z,417.00
2022-11-14T01:21:42.993Z,417.00
2022-11-14T01:22:13.020Z,416.00
2022-11-14T01:22:43.170Z,417.00
2022-11-14T01:23:13.038Z,418.00
2022-11-14T01:23:43.061Z,417.00
2022-11-14T01:24:13.084Z,417.00
2022-11-14T01:24:43.108Z,418.00
2022-11-14T01:25:13.131Z,418.00
2022-11-14T01:25:43.185Z,417.00
2022-11-14T01:26:13.203Z,418.00
2022-11-14T01:26:43.227Z,420.00
2022-11-14T01:27:13.253Z,421.00
2022-11-14T01:27:43.281Z,419.00
2022-11-14T01:28:13.306Z,418.00
2022-11-14T01:28:43.329Z,419.00
2022-11-14T01:29:13.355Z,419.00
2022-11-14T01:29:43.379Z,418.00
2022-11-14T01:30:13.412Z,417.00
2022-11-14T01:30:43.440Z,418.00
2022-11-14T01:31:13.466Z,416.00
2022-11-14T01:31:43.497Z,419.00
2022-11-14T01:32:13.512Z,419.00
2022-11-14T01:32:43.537Z,418.00
2022-11-14T01:33:13.560Z,419.00
2022-11-14T01:33:43.587Z,419.00
2022-11-14T01:34:13.609Z,419.00
2022-11-14T01:34:43.636Z,419.00
2022-11-14T01:35:13.658Z,419.00
2022-11-14T01:35:43.719Z,418.00
2022-11-14T01:36:13.750Z,417.00
2022-11-14T01:36:43.774Z,418.00
2022-11-14T01:37:13.792Z,418.00
2022-11-14T01:37:43.817Z,418.00
2022-11-14T01:38:13.953Z,419.00
2022-11-14T01:38:43.938Z,420.00
2022-11-14T01:39:13.960Z,420.00
2022-11-14T01:39:43.984Z,421.00
2022-11-14T01:40:14.007Z,420.00
2022-11-14T01:40:44.047Z,419.00
2022-11-14T01:41:14.078Z,418.00
2022-11-14T01:41:44.096Z,416.00
2022-11-14T01:42:14.129Z,415.00
2022-11-14T01:42:44.141Z,413.00
2022-11-14T01:43:14.164Z,412.00
2022-11-14T01:43:44.187Z,413.00
2022-11-14T01:44:14.215Z,409.00
2022-11-14T01:44:44.239Z,409.00
2022-11-14T01:45:14.260Z,410.00
2022-11-14T01:45:44.297Z,412.00
2022-11-14T01:46:14.319Z,413.00
2022-11-14T01:46:44.341Z,414.00
2022-11-14T01:47:14.365Z,415.00
2022-11-14T01:47:44.388Z,416.00
2022-11-14T01:48:14.410Z,414.00
2022-11-14T01:48:44.433Z,414.00
2022-11-14T01:49:14.463Z,415.00
2022-11-14T01:49:44.485Z,416.00
2022-11-14T01:50:14.511Z,416.00
2022-11-14T01:50:44.545Z,416.00
2022-11-14T01:51:14.616Z,416.00
2022-11-14T01:51:44.626Z,416.00
2022-11-14T01:52:14.639Z,417.00
2022-11-14T01:52:44.663Z,417.00
2022-11-14T01:53:14.694Z,416.00
2022-11-14T01:53:44.733Z,415.00
2022-11-14T01:54:14.735Z,415.00
2022-11-14T01:54:44.761Z,417.00
2022-11-14T01:55:14.783Z,415.00
2022-11-14T01:55:44.800Z,415.00
2022-11-14T01:56:14.836Z,417.00
2022-11-14T01:56:44.858Z,418.00
2022-11-14T01:57:14.880Z,418.00
2022-11-14T01:57:44.905Z,419.00
2022-11-14T01:58:14.927Z,421.00
2022-11-14T01:58:44.961Z,419.00
2022-11-14T01:59:14.972Z,418.00
2022-11-14T01:59:45.003Z,415.00
2022-11-14T02:00:15.020Z,415.00
2022-11-14T02:00:45.066Z,416.00
2022-11-14T02:01:15.185Z,416.00
2022-11-14T02:01:45.299Z,414.00
2022-11-14T02:02:15.310Z,415.00
2022-11-14T02:02:45.330Z,415.00
2022-11-14T02:03:15.352Z,417.00
2022-11-14T02:03:45.373Z,417.00
2022-11-14T02:04:15.504Z,420.00
2022-11-14T02:04:45.514Z,419.00
2022-11-14T02:05:15.534Z,419.00
2022-11-14T02:05:45.561Z,417.00
2022-11-14T02:06:15.594Z,416.00
2022-11-14T02:06:45.670Z,417.00
2022-11-14T02:07:15.834Z,418.00
2022-11-14T02:07:45.744Z,418.00
2022-11-14T02:08:15.776Z,418.00
2022-11-14T02:08:45.791Z,417.00
2022-11-14T02:09:15.935Z,418.00
2022-11-14T02:09:45.919Z,418.00
2022-11-14T02:10:16.050Z,419.00
2022-11-14T02:10:46.154Z,419.00
2022-11-14T02:11:16.270Z,418.00
2022-11-14T02:11:46.383Z,418.00
2022-11-14T02:12:16.498Z,418.00
2022-11-14T02:12:46.614Z,420.00
2022-11-14T02:13:16.719Z,421.00
2022-11-14T02:13:46.828Z,421.00
2022-11-14T02:14:16.941Z,422.00
2022-11-14T02:14:47.068Z,423.00
2022-11-14T02:15:17.173Z,421.00
2022-11-14T02:15:47.293Z,423.00
2022-11-14T02:16:17.405Z,426.00
2022-11-14T02:17:07.281Z,426.00
2022-11-14T02:17:33.013Z,426.00
2022-11-14T02:17:47.540Z,426.00
2022-11-14T02:18:17.650Z,424.00
2022-11-14T02:18:47.765Z,423.00
2022-11-14T02:19:17.877Z,422.00
2022-11-14T02:19:47.992Z,423.00
2022-11-14T02:20:18.011Z,421.00
2022-11-14T02:20:48.047Z,421.00
2022-11-14T02:21:18.064Z,422.00
2022-11-14T02:21:48.087Z,424.00
2022-11-14T02:22:18.114Z,424.00
2022-11-14T02:22:48.133Z,425.00
2022-11-14T02:23:18.170Z,423.00
2022-11-14T02:23:48.184Z,421.00
2022-11-14T02:24:18.328Z,423.00
2022-11-14T02:24:48.319Z,423.00
2022-11-14T02:25:18.355Z,422.00
2022-11-14T02:25:48.379Z,422.00
2022-11-14T02:26:18.414Z,422.00
2022-11-14T02:26:48.438Z,421.00
2022-11-14T02:27:18.462Z,421.00
2022-11-14T02:27:48.486Z,419.00
2022-11-14T02:28:18.511Z,419.00
2022-11-14T02:28:48.532Z,418.00
2022-11-14T02:29:18.558Z,419.00
2022-11-14T02:29:48.590Z,420.00
2022-11-14T02:30:18.637Z,421.00
2022-11-14T02:30:48.651Z,420.00
2022-11-14T02:31:18.679Z,420.00
2022-11-14T02:31:48.705Z,420.00
2022-11-14T02:32:18.727Z,420.00
2022-11-14T02:33:17.121Z,419.00
2022-11-14T02:33:18.791Z,419.00
2022-11-14T02:33:48.817Z,417.00
2022-11-14T02:34:18.841Z,418.00
2022-11-14T02:34:48.861Z,417.00
2022-11-14T02:35:18.900Z,416.00
2022-11-14T02:35:48.909Z,416.00
2022-11-14T02:36:18.938Z,418.00
2022-11-14T02:36:48.961Z,419.00
2022-11-14T02:37:18.991Z,418.00
2022-11-14T02:37:49.011Z,419.00
2022-11-14T02:38:19.033Z,417.00
2022-11-14T02:38:49.067Z,416.00
2022-11-14T02:39:19.084Z,415.00
2022-11-14T02:39:49.224Z,414.00
2022-11-14T02:40:19.216Z,415.00
2022-11-14T02:40:49.239Z,416.00
2022-11-14T02:41:19.265Z,419.00
2022-11-14T02:41:49.286Z,420.00
2022-11-14T02:42:19.316Z,420.00
2022-11-14T02:42:49.333Z,420.00
2022-11-14T02:43:19.360Z,420.00
2022-11-14T02:43:49.382Z,420.00
2022-11-14T02:44:19.405Z,419.00
2022-11-14T02:44:49.429Z,419.00
2022-11-14T02:45:19.472Z,420.00
2022-11-14T02:45:49.498Z,419.00
2022-11-14T02:46:19.521Z,420.00
2022-11-14T02:46:49.546Z,419.00
2022-11-14T02:47:19.573Z,415.00
2022-11-14T02:47:49.598Z,414.00
2022-11-14T02:48:19.625Z,412.00
2022-11-14T02:48:49.647Z,412.00
2022-11-14T02:49:19.673Z,411.00
2022-11-14T02:49:49.694Z,411.00
2022-11-14T02:50:19.730Z,412.00
2022-11-14T02:50:49.752Z,413.00
2022-11-14T02:51:19.776Z,410.00
2022-11-14T02:51:49.807Z,412.00
2022-11-14T02:52:19.829Z,412.00
2022-11-14T02:52:49.877Z,413.00
2022-11-14T02:53:19.904Z,414.00
2022-11-14T02:53:49.927Z,412.00
2022-11-14T02:54:19.959Z,411.00
2022-11-14T02:54:54.304Z,409.00
2022-11-14T02:55:20.135Z,410.00
2022-11-14T02:55:50.125Z,412.00
2022-11-14T02:56:20.148Z,411.00
2022-11-14T02:56:50.172Z,411.00
2022-11-14T02:57:20.196Z,413.00
2022-11-14T02:57:50.221Z,413.00
2022-11-14T02:58:20.244Z,414.00
2022-11-14T02:58:50.271Z,412.00
2022-11-14T02:59:20.290Z,414.00
2022-11-14T02:59:50.319Z,415.00
2022-11-14T03:00:20.444Z,416.00
2022-11-14T03:01:18.429Z,418.00
2022-11-14T03:01:21.639Z,418.00
2022-11-14T03:01:50.563Z,420.00
2022-11-14T03:02:20.610Z,419.00
2022-11-14T03:02:50.627Z,419.00
2022-11-14T03:03:20.650Z,420.00
2022-11-14T03:03:50.684Z,418.00
2022-11-14T03:04:20.712Z,419.00
2022-11-14T03:04:50.734Z,418.00
2022-11-14T03:05:20.760Z,420.00
2022-11-14T03:05:50.782Z,421.00
2022-11-14T03:06:20.802Z,420.00
2022-11-14T03:06:50.936Z,420.00
2022-11-14T03:07:21.024Z,421.00
2022-11-14T03:07:50.942Z,420.00
2022-11-14T03:08:20.973Z,418.00
2022-11-14T03:08:50.983Z,418.00
2022-11-14T03:09:21.014Z,419.00
2022-11-14T03:09:51.039Z,415.00
2022-11-14T03:10:21.164Z,413.00
2022-11-14T03:10:51.274Z,413.00
2022-11-14T03:11:21.225Z,411.00
2022-11-14T03:11:51.336Z,412.00
2022-11-14T03:12:21.452Z,411.00
2022-11-14T03:12:51.564Z,411.00
2022-11-14T03:13:21.679Z,413.00
2022-11-14T03:13:51.785Z,412.00
2022-11-14T03:14:21.906Z,412.00
2022-11-14T03:14:52.010Z,414.00
2022-11-14T03:15:22.131Z,414.00
2022-11-14T03:15:52.123Z,412.00
2022-11-14T03:16:22.232Z,412.00
2022-11-14T03:16:52.347Z,413.00
2022-11-14T03:17:22.454Z,414.00
2022-11-14T03:17:52.566Z,415.00
2022-11-14T03:18:22.680Z,415.00
2022-11-14T03:18:52.788Z,415.00
2022-11-14T03:19:22.902Z,414.00
2022-11-14T03:19:53.030Z,414.00
2022-11-14T03:20:23.050Z,415.00
2022-11-14T03:20:53.073Z,413.00
2022-11-14T03:21:23.096Z,414.00
2022-11-14T03:21:53.122Z,412.00
2022-11-14T03:22:23.146Z,413.00
2022-11-14T03:22:53.172Z,415.00
2022-11-14T03:23:23.203Z,416.00
2022-11-14T03:23:53.224Z,415.00
2022-11-14T03:24:23.255Z,414.00
2022-11-14T03:24:53.297Z,415.00
2022-11-14T03:25:23.325Z,414.00
2022-11-14T03:25:53.462Z,413.00
2022-11-14T03:26:23.449Z,413.00
2022-11-14T03:26:53.527Z,413.00
2022-11-14T03:27:23.534Z,412.00
2022-11-14T03:27:53.559Z,413.00
2022-11-14T03:28:23.580Z,413.00
2022-11-14T03:28:53.605Z,413.00
2022-11-14T03:29:23.630Z,411.00
2022-11-14T03:29:53.672Z,412.00
2022-11-14T03:30:23.692Z,411.00
2022-11-14T03:30:53.713Z,411.00
2022-11-14T03:31:23.739Z,410.00
2022-11-14T03:31:53.765Z,409.00
2022-11-14T03:32:23.793Z,409.00
2022-11-14T03:32:53.822Z,411.00
2022-11-14T03:33:23.841Z,412.00
2022-11-14T03:33:53.859Z,413.00
2022-11-14T03:34:23.883Z,417.00
2022-11-14T03:34:53.916Z,418.00
2022-11-14T03:35:23.947Z,418.00
2022-11-14T03:35:53.972Z,418.00
2022-11-14T03:36:24.001Z,417.00
2022-11-14T03:36:54.017Z,417.00
2022-11-14T03:37:24.045Z,415.00
2022-11-14T03:37:56.552Z,415.00
2022-11-14T03:38:24.142Z,414.00
2022-11-14T03:38:54.170Z,413.00
2022-11-14T03:39:24.199Z,413.00
2022-11-14T03:39:54.219Z,413.00
2022-11-14T03:40:24.235Z,414.00
2022-11-14T03:40:54.261Z,415.00
2022-11-14T03:41:24.426Z,417.00
2022-11-14T03:41:54.305Z,417.00
2022-11-14T03:42:24.331Z,418.00
2022-11-14T03:42:54.352Z,419.00
2022-11-14T03:43:24.390Z,419.00
2022-11-14T03:43:54.428Z,418.00
2022-11-14T03:44:24.449Z,419.00
2022-11-14T03:44:54.453Z,418.00
2022-11-14T03:45:24.495Z,417.00
2022-11-14T03:45:54.500Z,415.00
2022-11-14T03:46:24.517Z,413.00
2022-11-14T03:46:54.542Z,413.00
2022-11-14T03:47:24.573Z,415.00
2022-11-14T03:47:54.601Z,417.00
2022-11-14T03:48:24.619Z,415.00
2022-11-14T03:48:54.653Z,416.00
2022-11-14T03:49:24.677Z,415.00
2022-11-14T03:49:54.721Z,416.00
2022-11-14T03:50:24.723Z,417.00
2022-11-14T03:50:54.755Z,419.00
2022-11-14T03:51:24.785Z,420.00
2022-11-14T03:51:54.806Z,421.00
2022-11-14T03:52:24.828Z,419.00
2022-11-14T03:52:54.853Z,418.00
2022-11-14T03:53:24.875Z,417.00
2022-11-14T03:53:54.905Z,420.00
2022-11-14T03:54:24.927Z,421.00
2022-11-14T03:54:54.957Z,420.00
2022-11-14T03:55:24.974Z,420.00
2022-11-14T03:55:54.996Z,420.00
2022-11-14T03:56:25.020Z,417.00
2022-11-14T03:56:55.163Z,418.00
2022-11-14T03:57:25.149Z,418.00
2022-11-14T03:57:55.172Z,418.00
2022-11-14T03:58:25.193Z,420.00
2022-11-14T03:58:55.218Z,420.00
2022-11-14T03:59:25.238Z,420.00
2022-11-14T03:59:55.264Z,419.00
2022-11-14T04:00:25.293Z,417.00
2022-11-14T04:00:55.373Z,416.00
2022-11-14T04:01:25.447Z,417.00
2022-11-14T04:01:55.402Z,418.00
2022-11-14T04:02:25.431Z,418.00
2022-11-14T04:02:55.455Z,420.00
2022-11-14T04:03:25.483Z,421.00
2022-11-14T04:03:55.505Z,422.00
2022-11-14T04:04:25.526Z,421.00
2022-11-14T04:04:55.548Z,420.00
2022-11-14T04:05:25.574Z,420.00
2022-11-14T04:05:55.599Z,420.00
2022-11-14T04:06:25.623Z,422.00
2022-11-14T04:06:55.688Z,422.00
2022-11-14T04:07:25.771Z,422.00
2022-11-14T04:07:55.816Z,422.00
2022-11-14T04:08:25.835Z,421.00
2022-11-14T04:08:56.053Z,421.00
2022-11-14T04:09:25.955Z,423.00
2022-11-14T04:09:55.980Z,424.00
2022-11-14T04:10:25.974Z,423.00
2022-11-14T04:10:56.080Z,423.00
2022-11-14T04:11:26.190Z,422.00
2022-11-14T04:11:56.302Z,421.00
2022-11-14T04:12:26.527Z,420.00
2022-11-14T04:12:56.489Z,420.00
2022-11-14T04:13:26.480Z,420.00
2022-11-14T04:13:56.478Z,418.00
2022-11-14T04:14:26.463Z,418.00
2022-11-14T04:14:56.572Z,419.00
2022-11-14T04:15:26.684Z,420.00
2022-11-14T04:15:56.799Z,419.00
2022-11-14T04:16:26.911Z,419.00
2022-11-14T04:16:57.024Z,418.00
2022-11-14T04:17:27.133Z,418.00
2022-11-14T04:17:57.244Z,418.00
2022-11-14T04:18:27.608Z,418.00
2022-11-14T04:18:57.391Z,419.00
2022-11-14T04:19:27.387Z,419.00
2022-11-14T04:19:57.378Z,416.00
2022-11-14T04:20:27.398Z,416.00
2022-11-14T04:20:57.422Z,415.00
2022-11-14T04:21:27.452Z,416.00
2022-11-14T04:21:57.468Z,419.00
2022-11-14T04:22:27.494Z,420.00
2022-11-14T04:22:57.520Z,416.00
2022-11-14T04:23:27.538Z,415.00
2022-11-14T04:23:57.585Z,415.00
2022-11-14T04:24:27.604Z,416.00
2022-11-14T04:24:57.640Z,416.00
2022-11-14T04:25:27.661Z,413.00
2022-11-14T04:26:04.349Z,410.00
2022-11-14T04:26:27.683Z,410.00
2022-11-14T04:26:57.712Z,412.00
2022-11-14T04:27:27.734Z,415.00
2022-11-14T04:27:57.796Z,416.00
2022-11-14T04:28:28.108Z,416.00
2022-11-14T04:28:57.890Z,418.00
2022-11-14T04:29:27.915Z,419.00
2022-11-14T04:29:57.945Z,418.00
2022-11-14T04:30:33.498Z,417.00
2022-11-14T04:30:58.004Z,416.00
2022-11-14T04:31:28.022Z,418.00
2022-11-14T04:31:58.102Z,418.00
2022-11-14T04:32:28.093Z,419.00
2022-11-14T04:32:58.118Z,417.00
2022-11-14T04:33:28.143Z,415.00
2022-11-14T04:33:58.184Z,414.00
2022-11-14T04:34:28.205Z,415.00
2022-11-14T04:34:58.266Z,415.00
2022-11-14T04:35:28.292Z,416.00
2022-11-14T04:35:58.314Z,416.00
2022-11-14T04:36:28.338Z,416.00
2022-11-14T04:36:58.361Z,415.00
2022-11-14T04:37:28.393Z,416.00
2022-11-14T04:37:58.422Z,417.00
2022-11-14T04:38:28.878Z,417.00
2022-11-14T04:38:58.534Z,418.00
2022-11-14T04:39:28.559Z,419.00
2022-11-14T04:39:58.624Z,419.00
2022-11-14T04:40:28.643Z,419.00
2022-11-14T04:40:58.669Z,419.00
2022-11-14T04:41:28.692Z,419.00
2022-11-14T04:41:58.712Z,419.00
2022-11-14T04:42:28.735Z,419.00
2022-11-14T04:42:58.756Z,418.00
2022-11-14T04:43:28.896Z,419.00
2022-11-14T04:43:58.888Z,419.00
2022-11-14T04:44:28.898Z,417.00
2022-11-14T04:44:58.976Z,415.00
2022-11-14T04:45:29.008Z,416.00
2022-11-14T04:45:59.045Z,417.00
2022-11-14T04:46:29.068Z,417.00
2022-11-14T04:46:59.089Z,418.00
2022-11-14T04:47:29.114Z,417.00
2022-11-14T04:47:59.136Z,433.00
2022-11-14T04:48:29.621Z,428.00
2022-11-14T04:48:59.246Z,427.00
2022-11-14T04:49:29.283Z,432.00
2022-11-14T04:49:59.304Z,430.00
2022-11-14T04:50:29.328Z,425.00
2022-11-14T04:50:59.353Z,425.00
2022-11-14T04:51:29.374Z,425.00
2022-11-14T04:51:59.402Z,429.00
2022-11-14T04:52:29.430Z,430.00
2022-11-14T04:52:59.457Z,430.00
2022-11-14T04:53:29.480Z,432.00
2022-11-14T04:53:59.504Z,431.00
2022-11-14T04:54:29.536Z,434.00
2022-11-14T04:54:59.555Z,436.00
2022-11-14T04:55:29.576Z,437.00
2022-11-14T04:55:59.598Z,451.00
2022-11-14T04:56:29.649Z,448.00
2022-11-14T04:56:59.671Z,445.00
2022-11-14T04:57:29.703Z,445.00
2022-11-14T04:57:59.733Z,446.00
2022-11-14T04:58:30.195Z,448.00
2022-11-14T04:58:59.965Z,449.00
2022-11-14T04:59:29.960Z,453.00
2022-11-14T04:59:59.989Z,455.00
2022-11-14T05:00:30.007Z,455.00
2022-11-14T05:01:00.111Z,455.00
2022-11-14T05:01:30.151Z,456.00
2022-11-14T05:02:00.046Z,459.00
2022-11-14T05:02:30.070Z,458.00
2022-11-14T05:03:00.114Z,458.00
2022-11-14T05:03:30.115Z,456.00
2022-11-14T05:04:00.185Z,454.00
2022-11-14T05:04:30.179Z,453.00
2022-11-14T05:05:00.208Z,451.00
2022-11-14T05:05:30.225Z,448.00
2022-11-14T05:06:00.252Z,448.00
2022-11-14T05:06:30.273Z,447.00
2022-11-14T05:07:00.361Z,447.00
2022-11-14T05:07:30.438Z,448.00
2022-11-14T05:08:00.487Z,446.00
2022-11-14T05:08:30.930Z,444.00
2022-11-14T05:09:00.599Z,442.00
2022-11-14T05:09:30.624Z,442.00
2022-11-14T05:10:00.633Z,441.00
2022-11-14T05:10:30.744Z,439.00
2022-11-14T05:11:00.871Z,441.00
2022-11-14T05:11:30.854Z,441.00
2022-11-14T05:12:00.965Z,440.00
2022-11-14T05:12:31.073Z,439.00
2022-11-14T05:13:01.914Z,438.00
2022-11-14T05:13:31.264Z,437.00
2022-11-14T05:14:01.374Z,436.00
2022-11-14T05:14:31.514Z,435.00
2022-11-14T05:15:01.598Z,434.00
2022-11-14T05:15:31.709Z,434.00
2022-11-14T05:16:01.824Z,433.00
2022-11-14T05:16:31.932Z,434.00
2022-11-14T05:17:02.052Z,435.00
2022-11-14T05:17:32.177Z,436.00
2022-11-14T05:18:02.267Z,437.00
2022-11-14T05:18:32.817Z,437.00
2022-11-14T05:19:02.426Z,440.00
2022-11-14T05:19:32.532Z,444.00
2022-11-14T05:20:02.536Z,445.00
2022-11-14T05:20:32.569Z,446.00
2022-11-14T05:21:02.583Z,447.00
2022-11-14T05:21:32.616Z,447.00
2022-11-14T05:22:02.645Z,446.00
2022-11-14T05:22:32.683Z,445.00
2022-11-14T05:23:02.696Z,454.00
2022-11-14T05:23:32.733Z,455.00
2022-11-14T05:24:02.757Z,453.00
2022-11-14T05:24:32.801Z,452.00
2022-11-14T05:25:02.809Z,454.00
2022-11-14T05:25:32.841Z,457.00
2022-11-14T05:26:02.859Z,462.00
2022-11-14T05:26:32.883Z,461.00
2022-11-14T05:27:02.908Z,460.00
2022-11-14T05:27:32.930Z,462.00
2022-11-14T05:28:02.965Z,482.00
2022-11-14T05:28:33.098Z,479.00
2022-11-14T05:29:03.029Z,475.00
2022-11-14T05:29:33.083Z,475.00
2022-11-14T05:30:03.088Z,475.00
2022-11-14T05:30:33.107Z,477.00
2022-11-14T05:31:03.132Z,480.00
2022-11-14T05:31:33.157Z,482.00
2022-11-14T05:32:03.184Z,482.00
2022-11-14T05:32:33.212Z,482.00
2022-11-14T05:33:03.241Z,481.00
2022-11-14T05:33:33.282Z,478.00
2022-11-14T05:34:03.302Z,476.00
2022-11-14T05:34:33.342Z,476.00
2022-11-14T05:35:03.367Z,476.00
2022-11-14T05:35:33.382Z,476.00
2022-11-14T05:36:03.412Z,478.00
2022-11-14T05:36:33.427Z,478.00
2022-11-14T05:37:03.460Z,479.00
2022-11-14T05:37:33.497Z,478.00
2022-11-14T05:38:03.517Z,479.00
2022-11-14T05:38:33.539Z,479.00
2022-11-14T05:39:03.567Z,478.00
2022-11-14T05:39:33.593Z,478.00
2022-11-14T05:40:03.604Z,478.00
2022-11-14T05:40:33.642Z,478.00
2022-11-14T05:41:03.665Z,477.00
2022-11-14T05:41:33.690Z,477.00
2022-11-14T05:42:03.719Z,477.00
2022-11-14T05:42:33.738Z,478.00
2022-11-14T05:43:03.779Z,477.00
2022-11-14T05:43:33.784Z,478.00
2022-11-14T05:44:03.815Z,472.00
2022-11-14T05:44:33.839Z,480.00
2022-11-14T05:45:03.894Z,485.00
2022-11-14T05:45:33.890Z,487.00
2022-11-14T05:46:03.907Z,485.00
2022-11-14T05:46:33.953Z,484.00
2022-11-14T05:47:03.964Z,485.00
2022-11-14T05:47:33.991Z,486.00
2022-11-14T05:48:04.015Z,488.00
2022-11-14T05:48:34.138Z,489.00
2022-11-14T05:49:04.140Z,493.00
2022-11-14T05:49:34.159Z,494.00
2022-11-14T05:50:04.183Z,492.00
2022-11-14T05:50:34.200Z,491.00
2022-11-14T05:51:04.223Z,488.00
2022-11-14T05:51:34.250Z,483.00
2022-11-14T05:52:04.273Z,482.00
2022-11-14T05:52:34.294Z,481.00
2022-11-14T05:53:04.313Z,480.00
2022-11-14T05:53:34.340Z,481.00
2022-11-14T05:54:04.361Z,479.00
2022-11-14T05:54:34.392Z,480.00
2022-11-14T05:55:04.420Z,480.00
2022-11-14T05:55:34.441Z,480.00
2022-11-14T05:56:04.471Z,481.00
2022-11-14T05:56:34.489Z,484.00
2022-11-14T05:57:04.516Z,485.00
2022-11-14T05:57:34.538Z,485.00
2022-11-14T05:58:04.561Z,486.00
2022-11-14T05:58:34.588Z,487.00
2022-11-14T05:59:04.613Z,488.00
2022-11-14T05:59:34.651Z,488.00
2022-11-14T06:00:04.677Z,490.00
2022-11-14T06:00:42.407Z,490.00
2022-11-14T06:01:04.752Z,493.00
2022-11-14T06:01:34.873Z,493.00
2022-11-14T06:02:04.842Z,493.00
2022-11-14T06:02:34.861Z,492.00
2022-11-14T06:03:04.886Z,490.00
2022-11-14T06:03:34.910Z,488.00
2022-11-14T06:04:04.933Z,490.00
2022-11-14T06:04:34.975Z,489.00
2022-11-14T06:05:04.998Z,489.00
2022-11-14T06:05:35.022Z,490.00
2022-11-14T06:06:05.049Z,490.00
2022-11-14T06:06:35.077Z,490.00
2022-11-14T06:07:05.204Z,490.00
2022-11-14T06:07:35.153Z,489.00
2022-11-14T06:08:05.165Z,488.00
2022-11-14T06:08:35.183Z,490.00
2022-11-14T06:09:05.215Z,493.00
2022-11-14T06:09:35.241Z,492.00
2022-11-14T06:10:05.242Z,494.00
2022-11-14T06:10:35.359Z,495.00
2022-11-14T06:11:05.463Z,498.00
2022-11-14T06:11:35.577Z,499.00
2022-11-14T06:12:05.686Z,500.00
2022-11-14T06:12:35.798Z,500.00
2022-11-14T06:13:05.909Z,499.00
2022-11-14T06:13:36.024Z,499.00
2022-11-14T06:14:10.468Z,500.00
2022-11-14T06:14:36.223Z,499.00